Time;durP1;ratioP1;P1;durP2;ratioP2;P2;SDS_P1;SDS_P2;PMS_P1;PMS_P2;Temp;Humidity;BMP_temperature;BMP_pressure;BME280_temperature;BME280_humidity;BME280_pressure;Samples;Min_cycle;Max_cycle;Signal;HPM_P1;HPM_P2
2020/03/22 00:01:19;;;;;;;6;5.4;;;;;;;4.32;74.70703;1010.259;;;;
2020/03/22 00:03:44;;;;;;;6.9;5.7;;;;;;;4.29;74.11426;1010.255;;;;
2020/03/22 00:06:09;;;;;;;7;5.3;;;;;;;4.22;73.53711;1010.275;;;;
2020/03/22 00:08:34;;;;;;;5.9;5.1;;;;;;;4.24;74.39941;1010.178;;;;
2020/03/22 00:10:59;;;;;;;6;5.1;;;;;;;4.2;75.19238;1010.258;;;;
2020/03/22 00:13:58;;;;;;;6.1;5.2;;;;;;;4.14;74.83301;1010.221;;;;
2020/03/22 00:16:23;;;;;;;5.9;5.2;;;;;;;4.15;75.21875;1010.262;;;;
2020/03/22 00:18:48;;;;;;;6;5.1;;;;;;;4.12;74.1875;1010.306;;;;
2020/03/22 00:21:13;;;;;;;6;5.4;;;;;;;4.14;74.87695;1010.312;;;;
2020/03/22 00:23:38;;;;;;;5.6;5;;;;;;;4.13;73.57813;1010.367;;;;
2020/03/22 00:26:12;;;;;;;6.6;5.4;;;;;;;4.09;73.75195;1010.373;;;;
2020/03/22 00:28:37;;;;;;;6.3;5;;;;;;;4.11;73.59766;1010.523;;;;
2020/03/22 00:31:02;;;;;;;7.3;5.3;;;;;;;4.06;73.57813;1010.461;;;;
2020/03/22 00:33:28;;;;;;;6;5.1;;;;;;;4.04;73.91211;1010.456;;;;
2020/03/22 00:35:53;;;;;;;6.1;5.2;;;;;;;4.07;73.69336;1010.432;;;;
2020/03/22 00:38:18;;;;;;;6.7;5.3;;;;;;;4.04;72.60547;1010.564;;;;
2020/03/22 00:40:43;;;;;;;7.1;5.2;;;;;;;4.05;72.21289;1010.583;;;;
2020/03/22 00:43:08;;;;;;;6.2;5.1;;;;;;;4.05;72.5166;1010.536;;;;
2020/03/22 00:45:33;;;;;;;6;5.2;;;;;;;4.01;72.87207;1010.503;;;;
2020/03/22 00:47:58;;;;;;;6.2;5.3;;;;;;;3.98;73.02344;1010.524;;;;
2020/03/22 00:50:23;;;;;;;6.1;4.8;;;;;;;4.01;72.37402;1010.653;;;;
2020/03/22 00:52:48;;;;;;;6;5.4;;;;;;;3.95;72.6582;1010.579;;;;
2020/03/22 00:55:13;;;;;;;6.9;5.3;;;;;;;3.99;72.40527;1010.537;;;;
2020/03/22 00:57:39;;;;;;;6.2;5.3;;;;;;;3.96;72.16309;1010.512;;;;
2020/03/22 01:00:03;;;;;;;7.5;5.6;;;;;;;3.91;72.48145;1010.526;;;;
2020/03/22 01:02:29;;;;;;;6.4;5.5;;;;;;;3.83;72.47852;1010.485;;;;
2020/03/22 01:04:54;;;;;;;6.3;5.3;;;;;;;3.85;72.21289;1010.44;;;;
2020/03/22 01:07:19;;;;;;;6.5;5.1;;;;;;;3.87;71.87891;1010.55;;;;
2020/03/22 01:09:44;;;;;;;7.1;5.6;;;;;;;3.81;71.90137;1010.427;;;;
2020/03/22 01:12:09;;;;;;;5.9;5.3;;;;;;;3.75;72.09277;1010.46;;;;
2020/03/22 01:14:34;;;;;;;6.6;5.2;;;;;;;3.75;72.22852;1010.517;;;;
2020/03/22 01:16:59;;;;;;;6.4;5.4;;;;;;;3.7;72.23145;1010.463;;;;
2020/03/22 01:19:24;;;;;;;6.6;5.7;;;;;;;3.68;72.16113;1010.475;;;;
2020/03/22 01:21:49;;;;;;;8.1;5.6;;;;;;;3.62;72.00391;1010.422;;;;
2020/03/22 01:24:14;;;;;;;6.7;5.7;;;;;;;3.59;71.97656;1010.484;;;;
2020/03/22 01:26:39;;;;;;;6.6;5.6;;;;;;;3.59;71.44727;1010.515;;;;
2020/03/22 01:29:04;;;;;;;7.3;5.5;;;;;;;3.53;71.23438;1010.611;;;;
2020/03/22 01:31:30;;;;;;;7.4;5.5;;;;;;;3.42;71.86914;1010.412;;;;
2020/03/22 01:33:55;;;;;;;6.1;5.5;;;;;;;3.39;72.00977;1010.459;;;;
2020/03/22 01:36:20;;;;;;;6.9;5.9;;;;;;;3.38;72.23438;1010.435;;;;
2020/03/22 01:38:45;;;;;;;6.9;5.7;;;;;;;3.38;71.94043;1010.462;;;;
2020/03/22 01:41:10;;;;;;;7;5.4;;;;;;;3.31;72.35742;1010.47;;;;
2020/03/22 01:43:35;;;;;;;7.2;5.4;;;;;;;3.3;72.21973;1010.508;;;;
2020/03/22 01:46:00;;;;;;;6.1;5.5;;;;;;;3.34;71.77637;1010.476;;;;
2020/03/22 01:48:25;;;;;;;7.4;5.4;;;;;;;3.31;71.5918;1010.49;;;;
2020/03/22 01:50:51;;;;;;;7.1;5.5;;;;;;;3.28;71.99316;1010.538;;;;
2020/03/22 01:53:16;;;;;;;6.6;5.5;;;;;;;3.33;71.20117;1010.614;;;;
2020/03/22 01:55:41;;;;;;;7.9;5.6;;;;;;;3.33;71.45996;1010.499;;;;
2020/03/22 01:58:06;;;;;;;7.3;5.4;;;;;;;3.37;71.29688;1010.53;;;;
2020/03/22 02:00:31;;;;;;;6.9;5.2;;;;;;;3.3;70.67871;1010.461;;;;
2020/03/22 02:02:56;;;;;;;6.3;5.5;;;;;;;3.24;71.3418;1010.532;;;;
2020/03/22 02:05:22;;;;;;;5.8;5.2;;;;;;;3.27;70.34668;1010.539;;;;
2020/03/22 02:07:47;;;;;;;6.3;5.2;;;;;;;3.25;70.79395;1010.558;;;;
2020/03/22 02:10:16;;;;;;;6.5;5.6;;;;;;;3.23;70.2373;1010.585;;;;
2020/03/22 02:13:48;;;;;;;6.8;5.2;;;;;;;3.22;70.42773;1010.593;;;;
2020/03/22 02:15:02;;;;;;;6.5;5.1;;;;;;;3.11;70.5332;1010.576;;;;
2020/03/22 02:17:42;;;;;;;6.6;5.5;;;;;;;3.06;70.64941;1010.553;;;;
2020/03/22 02:22:18;;;;;;;9.6;5.7;;;;;;;2.99;70.44629;1010.578;;;;
2020/03/22 02:24:43;;;;;;;6.3;5.3;;;;;;;2.93;70.79785;1010.528;;;;
2020/03/22 02:27:08;;;;;;;7.3;5.6;;;;;;;2.96;70.2959;1010.561;;;;
2020/03/22 02:29:33;;;;;;;7.5;5.5;;;;;;;2.9;70.70117;1010.589;;;;
2020/03/22 02:31:58;;;;;;;6.7;5.8;;;;;;;2.9;69.81348;1010.547;;;;
2020/03/22 02:34:23;;;;;;;7.4;5.6;;;;;;;2.89;69.99121;1010.61;;;;
2020/03/22 02:36:49;;;;;;;8;5.7;;;;;;;2.83;70.92578;1010.537;;;;
2020/03/22 02:39:15;;;;;;;7.6;5.8;;;;;;;2.83;70.46484;1010.569;;;;
2020/03/22 02:41:40;;;;;;;8.1;6.1;;;;;;;2.79;70.68457;1010.572;;;;
2020/03/22 02:44:05;;;;;;;7.1;5.8;;;;;;;2.76;70.51074;1010.559;;;;
2020/03/22 02:46:30;;;;;;;8.3;6.1;;;;;;;2.77;70.60156;1010.587;;;;
2020/03/22 02:48:56;;;;;;;7.8;6.1;;;;;;;2.71;71.05371;1010.562;;;;
2020/03/22 02:51:21;;;;;;;6.6;5.9;;;;;;;2.67;71.00098;1010.608;;;;
2020/03/22 02:53:46;;;;;;;7.3;6.1;;;;;;;2.68;71.10352;1010.594;;;;
2020/03/22 02:56:11;;;;;;;7.8;6;;;;;;;2.67;70.51758;1010.568;;;;
2020/03/22 02:58:37;;;;;;;7.6;5.8;;;;;;;2.7;70.34277;1010.632;;;;
2020/03/22 03:01:02;;;;;;;7.6;6;;;;;;;2.66;70.75195;1010.576;;;;
2020/03/22 03:03:27;;;;;;;7.4;5.9;;;;;;;2.66;70.76367;1010.657;;;;
2020/03/22 03:05:52;;;;;;;8.3;6.1;;;;;;;2.62;70.8457;1010.557;;;;
2020/03/22 03:08:18;;;;;;;7.9;6.3;;;;;;;2.59;71.02148;1010.59;;;;
2020/03/22 03:10:43;;;;;;;7.8;5.9;;;;;;;2.56;70.67969;1010.607;;;;
2020/03/22 03:13:08;;;;;;;8;6.3;;;;;;;2.52;71.11035;1010.568;;;;
2020/03/22 03:15:33;;;;;;;7.4;6.3;;;;;;;2.52;71.08789;1010.557;;;;
2020/03/22 03:17:58;;;;;;;7.2;6.1;;;;;;;2.49;71.26172;1010.558;;;;
2020/03/22 03:20:23;;;;;;;8.5;6.4;;;;;;;2.45;71.6377;1010.645;;;;
2020/03/22 03:22:48;;;;;;;7.8;6.3;;;;;;;2.44;71.31055;1010.656;;;;
2020/03/22 03:25:13;;;;;;;8.3;6.3;;;;;;;2.33;71.70898;1010.631;;;;
2020/03/22 03:27:38;;;;;;;7.3;6.2;;;;;;;2.32;71.63867;1010.699;;;;
2020/03/22 03:30:03;;;;;;;7.7;6.4;;;;;;;2.27;71.61816;1010.891;;;;
2020/03/22 03:32:28;;;;;;;8.3;6.7;;;;;;;2.21;71.94434;1010.735;;;;
2020/03/22 03:34:54;;;;;;;7.9;6.4;;;;;;;2.17;71.79102;1010.816;;;;
2020/03/22 03:37:19;;;;;;;7.8;6.2;;;;;;;2.16;72.07129;1010.853;;;;
2020/03/22 03:39:44;;;;;;;8.4;6.5;;;;;;;2.12;71.88574;1010.837;;;;
2020/03/22 03:42:09;;;;;;;7.7;6.4;;;;;;;2.09;72.30664;1010.863;;;;
2020/03/22 03:44:34;;;;;;;8;6.8;;;;;;;2.08;72.13672;1010.909;;;;
2020/03/22 03:47:00;;;;;;;7.7;6.1;;;;;;;2.04;72.29688;1010.918;;;;
2020/03/22 03:49:25;;;;;;;8.6;6.8;;;;;;;1.97;72.49902;1010.957;;;;
2020/03/22 03:51:50;;;;;;;8.2;6.9;;;;;;;1.91;72.92676;1010.976;;;;
2020/03/22 03:54:15;;;;;;;8.6;6.9;;;;;;;1.86;73.09668;1010.947;;;;
2020/03/22 03:56:40;;;;;;;7.8;6.5;;;;;;;1.87;72.89746;1010.989;;;;
2020/03/22 03:59:05;;;;;;;9.5;7;;;;;;;1.9;72.68945;1010.978;;;;
2020/03/22 04:02:27;;;;;;;8.9;6.5;;;;;;;1.84;72.92676;1011.028;;;;
2020/03/22 04:05:52;;;;;;;8.3;7;;;;;;;1.83;73.21484;1010.998;;;;
2020/03/22 04:07:17;;;;;;;7.9;6.4;;;;;;;1.79;73.43164;1011.102;;;;
2020/03/22 04:09:43;;;;;;;8.1;6.5;;;;;;;1.82;73.22461;1011.166;;;;
2020/03/22 04:12:08;;;;;;;8.9;6.2;;;;;;;1.76;73.39355;1011.233;;;;
2020/03/22 04:14:33;;;;;;;8.5;6.5;;;;;;;1.73;73.79199;1011.195;;;;
2020/03/22 04:16:58;;;;;;;7.4;6.4;;;;;;;1.72;73.71191;1011.226;;;;
2020/03/22 04:19:23;;;;;;;7.4;6.1;;;;;;;1.73;73.42285;1011.275;;;;
2020/03/22 04:21:48;;;;;;;7.8;6.3;;;;;;;1.75;73.66113;1011.231;;;;
2020/03/22 04:24:13;;;;;;;9.7;6.2;;;;;;;1.72;73.66797;1011.29;;;;
2020/03/22 04:26:38;;;;;;;9.1;6.9;;;;;;;1.71;73.91309;1011.318;;;;
2020/03/22 04:29:03;;;;;;;8.7;6.7;;;;;;;1.74;73.82813;1011.311;;;;
2020/03/22 04:31:30;;;;;;;7.3;5.9;;;;;;;1.78;73.39648;1011.404;;;;
2020/03/22 04:33:55;;;;;;;7.6;6.2;;;;;;;1.85;73.33203;1011.403;;;;
2020/03/22 04:36:43;;;;;;;8.7;6.5;;;;;;;1.88;72.79785;1011.372;;;;
2020/03/22 04:39:08;;;;;;;8.2;6.7;;;;;;;1.92;72.79492;1011.5;;;;
2020/03/22 04:41:38;;;;;;;8.7;6.4;;;;;;;1.96;73.14746;1011.512;;;;
2020/03/22 04:44:03;;;;;;;10;6.2;;;;;;;1.98;72.5791;1011.519;;;;
2020/03/22 04:46:28;;;;;;;7;6.2;;;;;;;2.04;72.30859;1011.556;;;;
2020/03/22 04:48:54;;;;;;;8.2;6.2;;;;;;;2.02;72.21582;1011.57;;;;
2020/03/22 04:51:19;;;;;;;7.7;6.1;;;;;;;2;72.25879;1011.615;;;;
2020/03/22 04:53:44;;;;;;;7.5;5.9;;;;;;;2.06;72.05469;1011.633;;;;
2020/03/22 04:56:10;;;;;;;8.7;6.2;;;;;;;2.02;71.82422;1011.64;;;;
2020/03/22 04:58:35;;;;;;;8;6.5;;;;;;;2.01;72.22559;1011.695;;;;
2020/03/22 05:01:00;;;;;;;8.5;6.1;;;;;;;2.05;72.13184;1011.717;;;;
2020/03/22 05:03:26;;;;;;;7.3;6.5;;;;;;;2;71.91113;1011.732;;;;
2020/03/22 05:05:50;;;;;;;8;6.1;;;;;;;1.94;72.7627;1011.77;;;;
2020/03/22 05:08:16;;;;;;;9.3;6.4;;;;;;;1.78;72.84863;1011.696;;;;
2020/03/22 05:10:41;;;;;;;6.8;6.1;;;;;;;1.75;72.85547;1011.775;;;;
2020/03/22 05:13:06;;;;;;;7.3;6.3;;;;;;;1.73;72.90625;1011.826;;;;
2020/03/22 05:15:31;;;;;;;7.6;6.3;;;;;;;1.69;73.0332;1011.794;;;;
2020/03/22 05:17:56;;;;;;;8.3;6;;;;;;;1.63;73.03516;1011.755;;;;
2020/03/22 05:20:21;;;;;;;9.2;6.4;;;;;;;1.55;73.2002;1011.723;;;;
2020/03/22 05:22:47;;;;;;;8.9;6.4;;;;;;;1.52;73.52051;1011.686;;;;
2020/03/22 05:25:12;;;;;;;7.8;6.2;;;;;;;1.51;73.19434;1011.732;;;;
2020/03/22 05:27:37;;;;;;;8.3;6.1;;;;;;;1.5;73.53906;1011.762;;;;
2020/03/22 05:30:02;;;;;;;7.3;6;;;;;;;1.45;73.40723;1011.677;;;;
2020/03/22 05:32:27;;;;;;;7.2;6;;;;;;;1.47;73.37695;1011.688;;;;
2020/03/22 05:35:14;;;;;;;7.6;6.1;;;;;;;1.47;73.28711;1011.728;;;;
2020/03/22 05:37:40;;;;;;;8;5.8;;;;;;;1.43;73.18066;1011.762;;;;
2020/03/22 05:40:05;;;;;;;8.4;6.4;;;;;;;1.48;72.96582;1011.921;;;;
2020/03/22 05:42:30;;;;;;;7.3;6;;;;;;;1.48;72.95313;1011.806;;;;
2020/03/22 05:44:55;;;;;;;8;6;;;;;;;1.5;72.46387;1011.946;;;;
2020/03/22 05:47:20;;;;;;;8.7;6.1;;;;;;;1.5;72.82129;1011.967;;;;
2020/03/22 05:49:45;;;;;;;7.9;6.5;;;;;;;1.45;73.17188;1011.87;;;;
2020/03/22 05:52:10;;;;;;;7.3;6.2;;;;;;;1.44;72.75586;1011.926;;;;
2020/03/22 05:54:35;;;;;;;7.9;5.9;;;;;;;1.47;72.59277;1011.952;;;;
2020/03/22 05:57:00;;;;;;;7.3;5.9;;;;;;;1.47;72.34766;1011.877;;;;
2020/03/22 05:59:25;;;;;;;7.8;6.1;;;;;;;1.5;72.25098;1011.884;;;;
2020/03/22 06:02:03;;;;;;;7.5;6.3;;;;;;;1.54;72.12305;1011.886;;;;
2020/03/22 06:04:28;;;;;;;7.1;6.2;;;;;;;1.56;72.27148;1011.954;;;;
2020/03/22 06:07:45;;;;;;;7.6;6.3;;;;;;;1.57;71.94824;1011.97;;;;
2020/03/22 06:10:10;;;;;;;7.3;6;;;;;;;1.57;71.8252;1012.029;;;;
2020/03/22 06:12:35;;;;;;;8.5;5.7;;;;;;;1.59;71.23535;1012.115;;;;
2020/03/22 06:15:00;;;;;;;6.9;5.8;;;;;;;1.65;71.28906;1012.173;;;;
2020/03/22 06:17:25;;;;;;;8.1;5.9;;;;;;;1.7;70.82617;1012.196;;;;
2020/03/22 06:19:50;;;;;;;7.8;6.1;;;;;;;1.72;70.66211;1012.173;;;;
2020/03/22 06:22:15;;;;;;;8.3;6.4;;;;;;;1.77;70.08594;1012.273;;;;
2020/03/22 06:24:40;;;;;;;7.9;6.3;;;;;;;1.79;70.83301;1012.184;;;;
2020/03/22 06:27:06;;;;;;;8.3;5.9;;;;;;;1.86;70.42773;1012.364;;;;
2020/03/22 06:29:32;;;;;;;7.3;6;;;;;;;1.86;70.29199;1012.389;;;;
2020/03/22 06:31:57;;;;;;;7.6;5.8;;;;;;;1.93;69.49609;1012.295;;;;
2020/03/22 06:34:22;;;;;;;8.7;6;;;;;;;2.03;69.21094;1012.422;;;;
2020/03/22 06:36:47;;;;;;;7.1;5.6;;;;;;;2.04;69.16602;1012.5;;;;
2020/03/22 06:39:12;;;;;;;8;5.8;;;;;;;2.16;69.29883;1012.414;;;;
2020/03/22 06:41:37;;;;;;;7.5;5.9;;;;;;;2.36;68.14063;1012.533;;;;
2020/03/22 06:44:02;;;;;;;9.4;5.8;;;;;;;3.25;65.15625;1012.558;;;;
2020/03/22 06:46:27;;;;;;;7.1;5.9;;;;;;;4.08;62.62012;1012.52;;;;
2020/03/22 06:48:52;;;;;;;6.1;5.3;;;;;;;4.69;59.9873;1012.517;;;;
2020/03/22 06:51:17;;;;;;;6.9;5.1;;;;;;;5.46;57.28027;1012.615;;;;
2020/03/22 06:53:43;;;;;;;6.1;5;;;;;;;5.36;56.76953;1012.531;;;;
2020/03/22 06:56:08;;;;;;;6.4;4.9;;;;;;;5.36;56.93848;1012.589;;;;
2020/03/22 06:58:33;;;;;;;6.4;5.2;;;;;;;5.25;57.03711;1012.708;;;;
2020/03/22 07:00:58;;;;;;;7.3;5.2;;;;;;;5.41;56.26563;1012.658;;;;
2020/03/22 07:03:24;;;;;;;6.4;5.3;;;;;;;5.46;55.42383;1012.612;;;;
2020/03/22 07:05:50;;;;;;;6.2;5.1;;;;;;;5.58;55.59863;1012.733;;;;
2020/03/22 07:08:14;;;;;;;6.2;4.7;;;;;;;6.14;54.16406;1012.608;;;;
2020/03/22 07:10:39;;;;;;;5.6;4.1;;;;;;;5.97;52.87402;1012.727;;;;
2020/03/22 07:13:04;;;;;;;7.8;4.9;;;;;;;6.23;53.40625;1012.723;;;;
2020/03/22 07:15:29;;;;;;;6.8;4.7;;;;;;;6.38;52.47168;1012.871;;;;
2020/03/22 07:17:54;;;;;;;6.1;5.2;;;;;;;6.2;52.8457;1012.728;;;;
2020/03/22 07:20:19;;;;;;;6.3;4.6;;;;;;;6.31;52.68945;1012.749;;;;
2020/03/22 07:22:44;;;;;;;8.1;5;;;;;;;6.7;50.68359;1012.846;;;;
2020/03/22 07:25:09;;;;;;;5.9;4.7;;;;;;;6.93;50.28027;1012.758;;;;
2020/03/22 07:27:34;;;;;;;6.4;4.5;;;;;;;7.24;49.33887;1012.822;;;;
2020/03/22 07:29:59;;;;;;;6.2;4.9;;;;;;;7.5;48.73145;1012.76;;;;
2020/03/22 07:37:15;;;;;;;7;4.6;;;;;;;6.83;49.14355;1012.862;;;;
2020/03/22 07:39:41;;;;;;;5.6;4.3;;;;;;;7.2;48.69824;1012.985;;;;
2020/03/22 07:42:06;;;;;;;6.5;4.4;;;;;;;7.24;48.82715;1012.856;;;;
2020/03/22 07:44:31;;;;;;;5.9;4.5;;;;;;;7.7;47.58301;1012.95;;;;
2020/03/22 07:46:56;;;;;;;5.4;4.2;;;;;;;8.05;45.7666;1012.819;;;;
2020/03/22 07:49:21;;;;;;;5;4.1;;;;;;;7.61;46.3457;1012.812;;;;
2020/03/22 07:51:46;;;;;;;5.8;4.3;;;;;;;7.81;45.77539;1012.952;;;;
2020/03/22 07:54:12;;;;;;;5.3;4.1;;;;;;;7.86;45.67871;1013.003;;;;
2020/03/22 07:56:37;;;;;;;5.5;4;;;;;;;8.12;44.37305;1012.961;;;;
2020/03/22 07:59:02;;;;;;;5.3;4;;;;;;;8.49;44.5498;1012.992;;;;
2020/03/22 08:01:27;;;;;;;5.5;4.3;;;;;;;7.29;46.40137;1013.035;;;;
2020/03/22 08:03:52;;;;;;;5.4;4.3;;;;;;;7.81;45.67285;1013.037;;;;
2020/03/22 08:06:17;;;;;;;5.8;4;;;;;;;7.36;46.31934;1013.225;;;;
2020/03/22 08:08:42;;;;;;;5.4;4.3;;;;;;;7.72;45.61914;1013.02;;;;
2020/03/22 08:11:07;;;;;;;5.7;4;;;;;;;7.8;45.70605;1013.014;;;;
2020/03/22 08:13:32;;;;;;;5.6;4.2;;;;;;;8.1;45.19141;1012.982;;;;
2020/03/22 08:16:15;;;;;;;5.2;4;;;;;;;8.71;43.30664;1013.088;;;;
2020/03/22 08:18:40;;;;;;;5.7;4.4;;;;;;;7.4;44.83301;1013.014;;;;
2020/03/22 08:21:05;;;;;;;5.3;4.1;;;;;;;7.12;46.15625;1013.229;;;;
2020/03/22 08:23:30;;;;;;;5.7;4;;;;;;;6.65;45.44824;1013.342;;;;
2020/03/22 08:25:56;;;;;;;5;3.7;;;;;;;6.68;45.92773;1013.122;;;;
2020/03/22 08:28:21;;;;;;;6.1;4.4;;;;;;;6.89;45.72266;1013.255;;;;
2020/03/22 08:30:46;;;;;;;6.5;4.1;;;;;;;6.84;45.61621;1013.165;;;;
2020/03/22 08:33:11;;;;;;;6.4;4.2;;;;;;;7.2;45.0752;1013.36;;;;
2020/03/22 08:35:36;;;;;;;7.4;3.9;;;;;;;7.45;44.42969;1013.514;;;;
2020/03/22 08:38:01;;;;;;;5.6;4.1;;;;;;;7.69;43.85156;1013.386;;;;
2020/03/22 08:40:26;;;;;;;6.2;4.1;;;;;;;7.39;44.19727;1013.324;;;;
2020/03/22 08:42:51;;;;;;;6;4;;;;;;;7.71;43.69434;1013.335;;;;
2020/03/22 08:45:16;;;;;;;4.5;3.6;;;;;;;7.55;43.43945;1013.364;;;;
2020/03/22 08:47:41;;;;;;;6.7;4.4;;;;;;;7.28;43.91211;1013.402;;;;
2020/03/22 08:50:07;;;;;;;5.6;4.3;;;;;;;8.12;42.64355;1013.43;;;;
2020/03/22 08:52:36;;;;;;;5.6;3.9;;;;;;;8.23;42.75781;1013.427;;;;
2020/03/22 08:57:26;;;;;;;4.9;4.2;;;;;;;7.7;43.36426;1013.37;;;;
2020/03/22 08:59:48;;;;;;;5.2;3.9;;;;;;;8.1;42.82324;1013.287;;;;
2020/03/22 09:02:23;;;;;;;6.4;4.1;;;;;;;7.37;44.09277;1013.302;;;;
2020/03/22 09:04:40;;;;;;;5.3;3.9;;;;;;;7.63;43.7207;1013.196;;;;
2020/03/22 09:07:02;;;;;;;5.9;4.1;;;;;;;8.06;43.10449;1013.36;;;;
2020/03/22 09:09:28;;;;;;;4.9;4;;;;;;;8.21;41.76465;1013.15;;;;
2020/03/22 09:11:53;;;;;;;6.3;4;;;;;;;8.7;41.36719;1013.33;;;;
2020/03/22 09:14:18;;;;;;;5;4.1;;;;;;;8.88;41.21387;1013.317;;;;
2020/03/22 09:16:52;;;;;;;5.7;3.8;;;;;;;8.31;41.50098;1013.441;;;;
2020/03/22 09:21:35;;;;;;;6;4.1;;;;;;;8.05;41.83008;1013.391;;;;
2020/03/22 09:24:00;;;;;;;5.4;3.9;;;;;;;8.39;41.61133;1013.294;;;;
2020/03/22 09:26:25;;;;;;;4.5;3.4;;;;;;;8.64;40.63184;1013.295;;;;
2020/03/22 09:28:50;;;;;;;4.4;3.6;;;;;;;8.94;39.80469;1013.44;;;;
2020/03/22 09:31:15;;;;;;;4.8;3.8;;;;;;;8.73;40.66309;1013.218;;;;
2020/03/22 09:33:41;;;;;;;4.4;3.5;;;;;;;8.63;40.41504;1013.462;;;;
2020/03/22 09:36:06;;;;;;;4.7;3.7;;;;;;;8.38;40.6875;1013.335;;;;
2020/03/22 09:38:31;;;;;;;5.5;3.8;;;;;;;8.57;40.78516;1013.485;;;;
2020/03/22 09:40:56;;;;;;;5.7;3.9;;;;;;;9;39.2627;1013.379;;;;
2020/03/22 09:43:21;;;;;;;5.6;3.9;;;;;;;8.8;39.62207;1013.372;;;;
2020/03/22 09:46:04;;;;;;;4.4;3.6;;;;;;;7.76;41.0957;1013.541;;;;
2020/03/22 09:48:12;;;;;;;4.9;3.8;;;;;;;7.61;42.08105;1013.332;;;;
2020/03/22 09:50:37;;;;;;;5.3;3.5;;;;;;;8.31;41.02246;1013.401;;;;
2020/03/22 09:53:02;;;;;;;5;3.5;;;;;;;8.54;40.00781;1013.404;;;;
2020/03/22 09:55:27;;;;;;;5.1;3.7;;;;;;;8.2;41.03516;1013.449;;;;
2020/03/22 09:57:52;;;;;;;4.7;3.7;;;;;;;8.23;41.27734;1013.268;;;;
2020/03/22 10:00:17;;;;;;;4.7;3.6;;;;;;;8.82;39.96484;1013.335;;;;
2020/03/22 10:02:42;;;;;;;5.2;3.6;;;;;;;8.78;39.97266;1013.379;;;;
2020/03/22 10:05:08;;;;;;;4.7;3.6;;;;;;;9.14;40.0752;1013.425;;;;
2020/03/22 10:07:33;;;;;;;4.9;3.9;;;;;;;9.22;40.40137;1013.383;;;;
2020/03/22 10:09:58;;;;;;;5.9;3.8;;;;;;;8.95;40.98145;1013.545;;;;
2020/03/22 10:12:23;;;;;;;5.4;3.9;;;;;;;8.59;41.76758;1013.179;;;;
2020/03/22 10:14:48;;;;;;;6.6;4.1;;;;;;;8.89;41.4082;1013.395;;;;
2020/03/22 10:17:13;;;;;;;5.7;4;;;;;;;8.94;41.21973;1013.354;;;;
2020/03/22 10:19:38;;;;;;;5.3;3.9;;;;;;;9.19;40.60352;1013.492;;;;
2020/03/22 10:22:04;;;;;;;5.8;4;;;;;;;9.13;40.0625;1013.556;;;;
2020/03/22 10:24:29;;;;;;;5.3;3.8;;;;;;;8.21;41.49121;1013.509;;;;
2020/03/22 10:26:57;;;;;;;5.9;4.2;;;;;;;8.74;41.53125;1013.437;;;;
2020/03/22 10:29:22;;;;;;;4.8;3.8;;;;;;;8.88;41.27051;1013.5;;;;
2020/03/22 10:31:47;;;;;;;5.7;3.9;;;;;;;9.62;40.37109;1013.416;;;;
2020/03/22 10:34:13;;;;;;;5.5;3.7;;;;;;;9.12;40.68945;1013.352;;;;
2020/03/22 10:36:39;;;;;;;6.2;4.1;;;;;;;8.74;41.88477;1013.312;;;;
2020/03/22 10:39:03;;;;;;;5.7;3.9;;;;;;;9.33;40.36621;1013.317;;;;
2020/03/22 10:41:40;;;;;;;6.1;3.9;;;;;;;8.99;40.10645;1013.423;;;;
2020/03/22 10:44:05;;;;;;;4.8;3.6;;;;;;;8.9;40.64648;1013.41;;;;
2020/03/22 10:46:32;;;;;;;5.8;3.8;;;;;;;8.9;40.68066;1013.539;;;;
2020/03/22 10:48:57;;;;;;;5.7;3.9;;;;;;;8.79;40.7373;1013.484;;;;
2020/03/22 10:51:22;;;;;;;5;4;;;;;;;8.83;40.61621;1013.396;;;;
2020/03/22 10:53:47;;;;;;;5.4;3.5;;;;;;;8.64;41.66992;1013.405;;;;
2020/03/22 10:56:12;;;;;;;5.4;3.7;;;;;;;7.83;42.3418;1013.344;;;;
2020/03/22 10:58:37;;;;;;;5.3;3.9;;;;;;;7.73;42.28613;1013.329;;;;
2020/03/22 11:01:02;;;;;;;5;4;;;;;;;7.58;42.72559;1013.296;;;;
2020/03/22 11:03:28;;;;;;;6;3.8;;;;;;;7.49;42.80859;1013.384;;;;
2020/03/22 11:05:53;;;;;;;6.3;3.9;;;;;;;7.6;43.55859;1013.374;;;;
2020/03/22 11:08:18;;;;;;;5.6;4.2;;;;;;;7.65;43.85938;1013.351;;;;
2020/03/22 11:10:43;;;;;;;5.4;3.6;;;;;;;7.84;43.51465;1013.281;;;;
2020/03/22 11:13:08;;;;;;;5;3.4;;;;;;;7.4;42.67383;1013.31;;;;
2020/03/22 11:15:33;;;;;;;5.3;3.6;;;;;;;7.39;42.70801;1013.401;;;;
2020/03/22 11:17:58;;;;;;;6.1;4.1;;;;;;;7.72;42.65039;1013.231;;;;
2020/03/22 11:20:23;;;;;;;4.9;3.6;;;;;;;7.77;42.05176;1013.476;;;;
2020/03/22 11:22:48;;;;;;;5.1;3.6;;;;;;;7.95;42.58105;1013.212;;;;
2020/03/22 11:25:13;;;;;;;4.5;3.6;;;;;;;8.14;42.00781;1013.284;;;;
2020/03/22 11:27:39;;;;;;;5.5;3.7;;;;;;;8.22;41.35547;1013.271;;;;
2020/03/22 11:30:04;;;;;;;4.9;3.8;;;;;;;8.34;42.17676;1013.265;;;;
2020/03/22 11:32:29;;;;;;;5.2;4.2;;;;;;;8.2;42.29883;1013.294;;;;
2020/03/22 11:34:54;;;;;;;5.4;3.6;;;;;;;8.29;41.7041;1013.209;;;;
2020/03/22 11:37:19;;;;;;;5.7;4;;;;;;;8.19;41.56836;1013.213;;;;
2020/03/22 11:39:44;;;;;;;4.9;3.7;;;;;;;8.29;41.98828;1013.231;;;;
2020/03/22 11:42:09;;;;;;;5.9;3.9;;;;;;;8.2;42.00293;1013.241;;;;
2020/03/22 11:44:58;;;;;;;5.8;3.9;;;;;;;8.24;42.04102;1013.185;;;;
2020/03/22 11:47:05;;;;;;;4.8;3.4;;;;;;;8.09;42.33301;1013.186;;;;
2020/03/22 11:51:50;;;;;;;4.1;3.3;;;;;;;8.47;41.7334;1013.245;;;;
2020/03/22 11:54:15;;;;;;;5.4;3.6;;;;;;;8.18;42.05859;1013.123;;;;
2020/03/22 11:56:40;;;;;;;4.3;3.6;;;;;;;8.35;42.22168;1013.197;;;;
2020/03/22 11:59:05;;;;;;;5.5;3.8;;;;;;;8.52;43.02539;1013.18;;;;
2020/03/22 12:01:41;;;;;;;5.1;3.7;;;;;;;8.65;43.01563;1013.342;;;;
2020/03/22 12:04:12;;;;;;;6.4;4;;;;;;;8.57;43.49805;1013.282;;;;
2020/03/22 12:06:43;;;;;;;6.6;4;;;;;;;8.43;42.49316;1013.227;;;;
2020/03/22 12:15:45;;;;;;;6.9;3.9;;;;;;;8.68;42.9502;1013.038;;;;
2020/03/22 12:16:28;;;;;;;6.9;4;;;;;;;8.61;42.45313;1013.133;;;;
2020/03/22 12:19:13;;;;;;;6;3.8;;;;;;;8.58;42.0957;1013.296;;;;
2020/03/22 12:21:26;;;;;;;5.4;4;;;;;;;8.55;43.11914;1013.145;;;;
2020/03/22 12:23:25;;;;;;;5.8;4.2;;;;;;;8.64;42.13672;1013.114;;;;
2020/03/22 12:25:50;;;;;;;5.8;4.1;;;;;;;8.66;42.34375;1013.035;;;;
2020/03/22 12:28:15;;;;;;;5.1;3.4;;;;;;;8.72;42.20117;1013.169;;;;
2020/03/22 12:30:40;;;;;;;5;4;;;;;;;8.56;42.20801;1013.174;;;;
2020/03/22 12:33:05;;;;;;;4.6;3.7;;;;;;;8.81;41.9375;1013.025;;;;
2020/03/22 12:35:30;;;;;;;5;3.8;;;;;;;8.84;42.05371;1013.124;;;;
2020/03/22 12:37:55;;;;;;;6.3;4.1;;;;;;;8.63;41.05371;1013.062;;;;
2020/03/22 12:40:21;;;;;;;5.9;3.8;;;;;;;8.7;42.1084;1012.982;;;;
2020/03/22 12:42:47;;;;;;;4.7;3.5;;;;;;;8.85;41.13086;1013.186;;;;
2020/03/22 12:45:12;;;;;;;5.2;3.6;;;;;;;8.91;41.11328;1013.228;;;;
2020/03/22 12:47:37;;;;;;;6.2;4.2;;;;;;;8.61;40.90332;1013.17;;;;
2020/03/22 12:50:02;;;;;;;5.1;3.6;;;;;;;8.76;40.89453;1013.041;;;;
2020/03/22 12:52:27;;;;;;;4.4;3.3;;;;;;;8.8;40.10059;1013.303;;;;
2020/03/22 12:54:52;;;;;;;4.9;3.8;;;;;;;8.87;40.20898;1013.23;;;;
2020/03/22 12:57:18;;;;;;;5.6;3.8;;;;;;;8.83;40.37695;1013.099;;;;
2020/03/22 12:59:43;;;;;;;4.6;3;;;;;;;8.87;40.24316;1013.213;;;;
2020/03/22 13:02:09;;;;;;;4.3;3.4;;;;;;;8.88;40.56348;1013.094;;;;
2020/03/22 13:04:34;;;;;;;4.9;3.5;;;;;;;9.01;40.55371;1013.082;;;;
2020/03/22 13:06:59;;;;;;;5.3;3.2;;;;;;;9.08;39.86426;1013.044;;;;
2020/03/22 13:09:49;;;;;;;4.8;3.8;;;;;;;8.96;39.39648;1013.204;;;;
2020/03/22 13:12:14;;;;;;;5;3.4;;;;;;;9.03;39.11816;1013.112;;;;
2020/03/22 13:14:39;;;;;;;5.2;3.6;;;;;;;8.88;39.36621;1013.012;;;;
2020/03/22 13:17:04;;;;;;;4.3;3.4;;;;;;;9.15;39.33301;1013.117;;;;
2020/03/22 13:19:29;;;;;;;5.5;3.4;;;;;;;9.25;39.21777;1012.996;;;;
2020/03/22 13:21:54;;;;;;;4.5;3.3;;;;;;;9.23;38.47363;1013.027;;;;
2020/03/22 13:24:19;;;;;;;5.7;3.8;;;;;;;9.22;38.51758;1013.227;;;;
2020/03/22 13:26:45;;;;;;;5.4;3.2;;;;;;;9.11;38.55371;1012.97;;;;
2020/03/22 13:29:10;;;;;;;6.2;3.7;;;;;;;9.29;38.90137;1012.877;;;;
2020/03/22 13:31:51;;;;;;;5.6;3.6;;;;;;;9.36;38.83887;1012.886;;;;
2020/03/22 13:34:16;;;;;;;4.3;3.5;;;;;;;9.37;38.23535;1012.755;;;;
2020/03/22 13:36:41;;;;;;;5.9;3.3;;;;;;;9.34;38.27832;1012.886;;;;
2020/03/22 13:39:06;;;;;;;5.7;3.4;;;;;;;9.18;37.73828;1012.768;;;;
2020/03/22 13:41:32;;;;;;;4.2;3.3;;;;;;;9.38;37.99609;1012.913;;;;
2020/03/22 13:43:57;;;;;;;4.5;3.3;;;;;;;9.34;37.63965;1012.938;;;;
2020/03/22 13:46:45;;;;;;;5;3.6;;;;;;;9.21;37.68457;1012.797;;;;
2020/03/22 13:49:10;;;;;;;4.9;3.4;;;;;;;9.23;37.59473;1012.795;;;;
2020/03/22 13:51:35;;;;;;;4.6;3.3;;;;;;;9.24;37.53906;1012.96;;;;
2020/03/22 13:54:00;;;;;;;5.5;3.1;;;;;;;9.23;37.20801;1012.942;;;;
2020/03/22 13:56:26;;;;;;;4.8;3.3;;;;;;;9.31;37.78516;1012.78;;;;
2020/03/22 13:58:51;;;;;;;5;3.4;;;;;;;9.41;37.41699;1012.842;;;;
2020/03/22 14:01:33;;;;;;;5.6;3.5;;;;;;;9.5;37.77832;1012.777;;;;
2020/03/22 14:04:19;;;;;;;4.1;3.1;;;;;;;9.48;37.55957;1012.772;;;;
2020/03/22 14:06:44;;;;;;;4.5;3.4;;;;;;;9.54;37.50879;1012.65;;;;
2020/03/22 14:09:09;;;;;;;4.5;3.2;;;;;;;9.61;37.67383;1012.809;;;;
2020/03/22 14:11:34;;;;;;;5.1;3.4;;;;;;;9.4;35.53223;1012.568;;;;
2020/03/22 14:14:08;;;;;;;6.5;3.1;;;;;;;9.31;35.77539;1012.919;;;;
2020/03/22 14:16:33;;;;;;;4.8;3.3;;;;;;;9.54;36.53711;1012.587;;;;
2020/03/22 14:18:58;;;;;;;4.3;2.9;;;;;;;9.53;35.9873;1012.692;;;;
2020/03/22 14:21:28;;;;;;;4.7;3;;;;;;;9.63;35.57324;1012.894;;;;
2020/03/22 14:23:53;;;;;;;4.6;3.2;;;;;;;9.49;35.44824;1012.703;;;;
2020/03/22 14:26:19;;;;;;;4.7;3.2;;;;;;;9.61;35.9834;1012.656;;;;
2020/03/22 14:28:43;;;;;;;4.1;2.6;;;;;;;9.5;35.54004;1012.868;;;;
2020/03/22 14:31:10;;;;;;;3.8;2.9;;;;;;;9.53;35.74902;1012.797;;;;
2020/03/22 14:33:54;;;;;;;3.9;2.8;;;;;;;9.49;35.76758;1012.819;;;;
2020/03/22 14:36:19;;;;;;;4.5;2.6;;;;;;;9.43;35.30566;1012.877;;;;
2020/03/22 14:38:44;;;;;;;3.9;2.6;;;;;;;9.42;34.95117;1012.87;;;;
2020/03/22 14:41:09;;;;;;;3.7;2.6;;;;;;;9.46;35.35352;1012.959;;;;
2020/03/22 14:43:35;;;;;;;4.5;2.8;;;;;;;9.53;35.23438;1012.812;;;;
2020/03/22 14:46:00;;;;;;;4.6;2.5;;;;;;;9.55;35.64648;1012.878;;;;
2020/03/22 14:48:25;;;;;;;4.2;2.6;;;;;;;9.61;35.74414;1012.885;;;;
2020/03/22 14:50:50;;;;;;;2.9;1.9;;;;;;;9.48;33.8252;1013.083;;;;
2020/03/22 14:53:15;;;;;;;3.1;2.2;;;;;;;9.44;33.92578;1012.93;;;;